»·PEaware :: N757AF KEGE-KABQ

N757AF :: KEGE-KABQ

FLIGHT INFORMATION

Flight Status: Arrived
Operator: Privately registered:
United States
More flights under this callsign
Pilot: Drew L. (13237)
Aircraft: BOEING 757-200
(B752)
More flights by this aircraft type
Origin: KEGE Eagle Co Regl
United States
Destination: KABQ Albuquerque Intl Sunport
United States
More flights between these airports :: More routes between these airports
Route: +GYPSM5 RLG ALS J13 ESPAN FRIHO4
File this flight plan on PilotEdge
Remarks: Sample flight plan
Altitude:
(Current/Filed)
37,000ft
Speed:
(Current/Filed)
115kts
Departed: 22-May-17 10:25 PM
Arrived: 22-May-17 11:15 PM
Distance/Time
Traveled:
276nm/0:50
Distance/Time
To Go:
Arrived

Flight Plot

Page will automatically refresh every two minutes.

Flight plan parsing failed; only flown route is shown


Map Options




Map Legend


Flown Route
Filed Route
Departure Airport
Arrival Airport
Navaid (VOR, NDB)
Fix

Horizontal Profiles

Position Reports

Time Latitude Longitude Heading Altitude Ground
Speed
22-May-17 21:51 39.640717 -106.914845 172 6552ft 0kts
22-May-17 21:52 39.640717 -106.914845 172 6552ft 0kts
22-May-17 21:53 39.640717 -106.914845 172 6552ft 0kts
22-May-17 21:54 39.640717 -106.914845 172 6552ft 0kts
22-May-17 21:55 39.640717 -106.914845 172 6552ft 0kts
22-May-17 21:56 39.640717 -106.914845 172 6552ft 0kts
22-May-17 21:57 39.640717 -106.914845 172 6552ft 0kts
22-May-17 21:58 39.640717 -106.914845 172 6552ft 0kts
22-May-17 21:59 39.640717 -106.914845 172 6552ft 0kts
22-May-17 22:00 39.640717 -106.914845 172 6552ft 0kts
22-May-17 22:01 39.640717 -106.914845 172 6552ft 0kts
22-May-17 22:02 39.640717 -106.914845 172 6552ft 0kts
22-May-17 22:03 39.640717 -106.914845 172 6552ft 0kts
22-May-17 22:04 39.640717 -106.914845 172 6552ft 0kts
22-May-17 22:05 39.640717 -106.914845 172 6552ft 0kts
22-May-17 22:06 39.640717 -106.914845 172 6552ft 0kts
22-May-17 22:07 39.640717 -106.914845 172 6552ft 0kts
22-May-17 22:08 39.640717 -106.914845 172 6552ft 0kts
22-May-17 22:09 39.640717 -106.914845 172 6552ft 0kts
22-May-17 22:10 39.640717 -106.914845 172 6551ft 0kts
22-May-17 22:11 39.640717 -106.914845 172 6551ft 0kts
22-May-17 22:12 39.640717 -106.914845 172 6551ft 0kts
22-May-17 22:13 39.640717 -106.914845 172 6551ft 0kts
22-May-17 22:14 39.640717 -106.914845 172 6551ft 0kts
22-May-17 22:15 39.640717 -106.914845 172 6551ft 0kts
22-May-17 22:16 39.640793 -106.914859 172 6551ft 2kts
22-May-17 22:17 39.641296 -106.914946 172 6552ft 0kts
22-May-17 22:18 39.641296 -106.914946 172 6552ft 0kts
22-May-17 22:19 39.641128 -106.914215 73 6551ft 12kts
22-May-17 22:20 39.641265 -106.913399 83 6551ft 0kts
22-May-17 22:21 39.641277 -106.913262 83 6551ft 8kts
22-May-17 22:22 39.641954 -106.914557 262 6551ft 11kts
22-May-17 22:23 39.641417 -106.919352 261 6551ft 20kts
22-May-17 22:24 39.640633 -106.926368 260 6551ft 18kts
22-May-17 22:25 39.640238 -106.931311 325 6551ft 0kts
22-May-17 22:26 39.640411 -106.931415 339 6551ft 4kts
22-May-17 22:27 39.641560 -106.926808 82 6551ft 86kts
22-May-17 22:28 39.645393 -106.873557 103 8870ft 157kts
22-May-17 22:29 39.652019 -106.822797 77 11503ft 149kts
22-May-17 22:30 39.662810 -106.761018 77 13266ft 218kts
22-May-17 22:31 39.666865 -106.667993 119 15775ft 309kts
22-May-17 22:32 39.583031 -106.615337 178 18503ft 389kts
22-May-17 22:33 39.470626 -106.611528 178 20353ft 433kts
22-May-17 22:34 39.354550 -106.581776 165 23275ft 440kts
22-May-17 22:35 39.233620 -106.534592 164 25386ft 459kts
22-May-17 22:36 39.109977 -106.486252 164 26882ft 488kts
22-May-17 22:37 38.974595 -106.433434 163 27888ft 521kts
22-May-17 22:38 38.861044 -106.389303 163 29810ft 519kts
22-May-17 22:39 38.730242 -106.338655 164 31798ft 517kts
22-May-17 22:40 38.594144 -106.286164 164 33734ft 514kts
22-May-17 22:41 38.458548 -106.234082 164 35666ft 508kts
22-May-17 22:42 38.323972 -106.182591 164 37312ft 506kts
22-May-17 22:43 38.190085 -106.131555 164 37346ft 504kts
22-May-17 22:44 38.056324 -106.080763 164 37268ft 504kts
22-May-17 22:45 37.922017 -106.029879 164 37268ft 504kts
22-May-17 22:46 37.791967 -105.980850 164 37262ft 504kts
22-May-17 22:47 37.657863 -105.930497 164 37236ft 504kts
22-May-17 22:48 37.523975 -105.880415 164 37237ft 504kts
22-May-17 22:49 37.389776 -105.833639 180 37265ft 475kts
22-May-17 22:50 37.268312 -105.855019 204 37240ft 437kts
22-May-17 22:51 37.153658 -105.902615 206 37237ft 434kts
22-May-17 22:52 37.040096 -105.952500 206 37236ft 434kts
22-May-17 22:53 36.926444 -106.002797 206 37235ft 434kts
22-May-17 22:54 36.814935 -106.052080 206 37238ft 434kts
22-May-17 22:55 36.701473 -106.101448 206 37163ft 430kts
22-May-17 22:56 36.592109 -106.149136 207 35314ft 408kts
22-May-17 22:57 36.486601 -106.195367 207 33506ft 405kts
22-May-17 22:58 36.379730 -106.242069 207 31720ft 412kts
22-May-17 22:59 36.262223 -106.293448 205 29912ft 490kts
22-May-17 23:00 36.133973 -106.348919 204 27985ft 488kts
22-May-17 23:01 36.009077 -106.402907 204 25881ft 470kts
22-May-17 23:02 35.888433 -106.454904 203 23332ft 458kts
22-May-17 23:03 35.770728 -106.505474 202 20902ft 443kts
22-May-17 23:04 35.656211 -106.554528 201 18480ft 430kts
22-May-17 23:05 35.545776 -106.601639 202 16100ft 416kts
22-May-17 23:06 35.440181 -106.646670 200 15211ft 401kts
22-May-17 23:07 35.338002 -106.635756 140 15011ft 392kts
22-May-17 23:08 35.260666 -106.548548 160 13844ft 364kts
22-May-17 23:09 35.171887 -106.515317 129 12444ft 325kts
22-May-17 23:10 35.143984 -106.422011 87 11032ft 286kts
22-May-17 23:11 35.115183 -106.343209 166 10220ft 278kts
22-May-17 23:12 35.050830 -106.364434 244 10229ft 212kts
22-May-17 23:13 35.041835 -106.425560 274 8706ft 172kts
22-May-17 23:14 35.043302 -106.477783 273 7147ft 147kts
22-May-17 23:15 35.043674 -106.526175 272 6163ft 145kts
22-May-17 23:16 35.044062 -106.574782 272 5418ft 138kts
22-May-17 23:17 35.046037 -106.588109 0 5365ft 14kts
22-May-17 23:18 35.049055 -106.587513 91 5365ft 0kts

Navigation Log

Ident Type
Flight plan parsing failed, navigation log unavailable